sensor_id;sensor_type;location;lat;lon;timestamp;P1;durP1;ratioP1;P2;durP2;ratioP2
19291;SDS011;9779;51.756;7.450;2023-06-04T00:00:24;3.57;;;1.83;;
19291;SDS011;9779;51.756;7.450;2023-06-04T00:02:50;4.67;;;2.17;;
19291;SDS011;9779;51.756;7.450;2023-06-04T00:05:15;3.03;;;1.40;;
19291;SDS011;9779;51.756;7.450;2023-06-04T00:07:41;1.43;;;1.33;;
19291;SDS011;9779;51.756;7.450;2023-06-04T00:10:06;1.60;;;1.27;;
19291;SDS011;9779;51.756;7.450;2023-06-04T00:12:32;1.17;;;1.03;;
19291;SDS011;9779;51.756;7.450;2023-06-04T00:14:58;6.03;;;1.27;;
19291;SDS011;9779;51.756;7.450;2023-06-04T00:17:23;3.47;;;1.40;;
19291;SDS011;9779;51.756;7.450;2023-06-04T00:19:49;1.37;;;1.00;;
19291;SDS011;9779;51.756;7.450;2023-06-04T00:22:14;2.30;;;1.37;;
19291;SDS011;9779;51.756;7.450;2023-06-04T00:24:40;1.13;;;1.10;;
19291;SDS011;9779;51.756;7.450;2023-06-04T00:27:07;2.10;;;1.30;;
19291;SDS011;9779;51.756;7.450;2023-06-04T00:29:33;3.77;;;1.13;;
19291;SDS011;9779;51.756;7.450;2023-06-04T00:31:59;1.73;;;1.20;;
19291;SDS011;9779;51.756;7.450;2023-06-04T00:34:24;1.73;;;1.17;;
19291;SDS011;9779;51.756;7.450;2023-06-04T00:36:50;1.10;;;0.93;;
19291;SDS011;9779;51.756;7.450;2023-06-04T00:39:16;1.50;;;1.27;;
19291;SDS011;9779;51.756;7.450;2023-06-04T00:41:41;1.33;;;1.20;;
19291;SDS011;9779;51.756;7.450;2023-06-04T00:44:07;6.40;;;1.27;;
19291;SDS011;9779;51.756;7.450;2023-06-04T00:46:33;2.03;;;1.10;;
19291;SDS011;9779;51.756;7.450;2023-06-04T00:49:01;1.70;;;1.40;;
19291;SDS011;9779;51.756;7.450;2023-06-04T00:51:27;1.33;;;1.03;;
19291;SDS011;9779;51.756;7.450;2023-06-04T00:53:56;1.17;;;1.07;;
19291;SDS011;9779;51.756;7.450;2023-06-04T00:56:23;1.20;;;1.10;;
19291;SDS011;9779;51.756;7.450;2023-06-04T00:58:48;4.40;;;1.40;;
19291;SDS011;9779;51.756;7.450;2023-06-04T01:04:18;5.90;;;1.23;;
19291;SDS011;9779;51.756;7.450;2023-06-04T01:06:52;2.07;;;1.47;;
19291;SDS011;9779;51.756;7.450;2023-06-04T01:09:21;2.77;;;1.43;;
19291;SDS011;9779;51.756;7.450;2023-06-04T01:11:47;2.40;;;1.87;;
19291;SDS011;9779;51.756;7.450;2023-06-04T01:14:13;1.80;;;1.20;;
19291;SDS011;9779;51.756;7.450;2023-06-04T01:16:39;1.50;;;1.23;;
19291;SDS011;9779;51.756;7.450;2023-06-04T01:19:10;5.43;;;1.00;;
19291;SDS011;9779;51.756;7.450;2023-06-04T01:21:47;1.43;;;1.33;;
19291;SDS011;9779;51.756;7.450;2023-06-04T01:24:16;2.80;;;1.30;;
19291;SDS011;9779;51.756;7.450;2023-06-04T01:26:46;4.00;;;1.33;;
19291;SDS011;9779;51.756;7.450;2023-06-04T01:29:13;4.87;;;1.47;;
19291;SDS011;9779;51.756;7.450;2023-06-04T01:31:38;2.43;;;1.50;;
19291;SDS011;9779;51.756;7.450;2023-06-04T01:34:07;1.30;;;1.20;;
19291;SDS011;9779;51.756;7.450;2023-06-04T01:36:33;2.60;;;1.47;;
19291;SDS011;9779;51.756;7.450;2023-06-04T01:38:58;1.80;;;1.43;;
19291;SDS011;9779;51.756;7.450;2023-06-04T01:41:25;5.20;;;1.40;;
19291;SDS011;9779;51.756;7.450;2023-06-04T01:43:51;1.27;;;1.13;;
19291;SDS011;9779;51.756;7.450;2023-06-04T01:46:16;1.50;;;1.37;;
19291;SDS011;9779;51.756;7.450;2023-06-04T01:48:42;1.77;;;1.43;;
19291;SDS011;9779;51.756;7.450;2023-06-04T01:51:07;3.07;;;1.40;;
19291;SDS011;9779;51.756;7.450;2023-06-04T01:53:33;1.40;;;1.30;;
19291;SDS011;9779;51.756;7.450;2023-06-04T01:55:58;1.50;;;1.40;;
19291;SDS011;9779;51.756;7.450;2023-06-04T01:58:24;1.80;;;1.40;;
19291;SDS011;9779;51.756;7.450;2023-06-04T02:00:54;1.50;;;1.40;;
19291;SDS011;9779;51.756;7.450;2023-06-04T02:03:21;1.70;;;1.27;;
19291;SDS011;9779;51.756;7.450;2023-06-04T02:05:47;2.03;;;1.37;;
19291;SDS011;9779;51.756;7.450;2023-06-04T02:08:17;2.17;;;1.40;;
19291;SDS011;9779;51.756;7.450;2023-06-04T02:10:45;2.57;;;1.30;;
19291;SDS011;9779;51.756;7.450;2023-06-04T02:13:12;1.53;;;1.43;;
19291;SDS011;9779;51.756;7.450;2023-06-04T02:15:37;2.10;;;2.00;;
19291;SDS011;9779;51.756;7.450;2023-06-04T02:18:13;5.17;;;1.40;;
19291;SDS011;9779;51.756;7.450;2023-06-04T02:20:46;1.50;;;1.40;;
19291;SDS011;9779;51.756;7.450;2023-06-04T02:23:14;3.63;;;1.43;;
19291;SDS011;9779;51.756;7.450;2023-06-04T02:25:41;2.10;;;1.80;;
19291;SDS011;9779;51.756;7.450;2023-06-04T02:28:06;1.30;;;1.20;;
19291;SDS011;9779;51.756;7.450;2023-06-04T02:30:32;1.90;;;1.47;;
19291;SDS011;9779;51.756;7.450;2023-06-04T02:32:58;1.57;;;1.27;;
19291;SDS011;9779;51.756;7.450;2023-06-04T02:35:26;2.20;;;1.37;;
19291;SDS011;9779;51.756;7.450;2023-06-04T02:37:52;2.80;;;1.30;;
19291;SDS011;9779;51.756;7.450;2023-06-04T02:40:18;2.10;;;1.50;;
19291;SDS011;9779;51.756;7.450;2023-06-04T02:42:43;1.60;;;1.50;;
19291;SDS011;9779;51.756;7.450;2023-06-04T02:45:10;3.00;;;1.30;;
19291;SDS011;9779;51.756;7.450;2023-06-04T02:47:35;1.80;;;1.10;;
19291;SDS011;9779;51.756;7.450;2023-06-04T02:50:02;1.47;;;1.30;;
19291;SDS011;9779;51.756;7.450;2023-06-04T02:52:28;1.63;;;1.30;;
19291;SDS011;9779;51.756;7.450;2023-06-04T02:54:55;1.90;;;1.60;;
19291;SDS011;9779;51.756;7.450;2023-06-04T02:57:21;4.03;;;1.40;;
19291;SDS011;9779;51.756;7.450;2023-06-04T02:59:46;2.13;;;1.60;;
19291;SDS011;9779;51.756;7.450;2023-06-04T03:02:12;4.40;;;1.57;;
19291;SDS011;9779;51.756;7.450;2023-06-04T03:04:40;3.97;;;1.70;;
19291;SDS011;9779;51.756;7.450;2023-06-04T03:07:06;1.50;;;1.40;;
19291;SDS011;9779;51.756;7.450;2023-06-04T03:09:33;2.37;;;1.60;;
19291;SDS011;9779;51.756;7.450;2023-06-04T03:12:02;2.20;;;1.67;;
19291;SDS011;9779;51.756;7.450;2023-06-04T03:14:28;1.73;;;1.63;;
19291;SDS011;9779;51.756;7.450;2023-06-04T03:16:59;4.20;;;1.60;;
19291;SDS011;9779;51.756;7.450;2023-06-04T03:19:35;1.50;;;1.37;;
19291;SDS011;9779;51.756;7.450;2023-06-04T03:22:02;1.70;;;1.60;;
19291;SDS011;9779;51.756;7.450;2023-06-04T03:24:30;1.50;;;1.40;;
19291;SDS011;9779;51.756;7.450;2023-06-04T03:27:04;2.37;;;1.67;;
19291;SDS011;9779;51.756;7.450;2023-06-04T03:29:31;3.53;;;1.37;;
19291;SDS011;9779;51.756;7.450;2023-06-04T03:31:57;3.47;;;1.43;;
19291;SDS011;9779;51.756;7.450;2023-06-04T03:34:23;1.90;;;1.67;;
19291;SDS011;9779;51.756;7.450;2023-06-04T03:36:50;2.30;;;1.67;;
19291;SDS011;9779;51.756;7.450;2023-06-04T03:39:19;1.57;;;1.43;;
19291;SDS011;9779;51.756;7.450;2023-06-04T03:41:45;3.93;;;2.00;;
19291;SDS011;9779;51.756;7.450;2023-06-04T03:44:14;1.20;;;1.20;;
19291;SDS011;9779;51.756;7.450;2023-06-04T03:46:44;2.60;;;1.50;;
19291;SDS011;9779;51.756;7.450;2023-06-04T03:49:10;2.40;;;1.63;;
19291;SDS011;9779;51.756;7.450;2023-06-04T03:51:36;1.73;;;1.63;;
19291;SDS011;9779;51.756;7.450;2023-06-04T03:54:03;3.20;;;2.00;;
19291;SDS011;9779;51.756;7.450;2023-06-04T03:56:28;2.13;;;1.83;;
19291;SDS011;9779;51.756;7.450;2023-06-04T03:58:54;1.97;;;1.27;;
19291;SDS011;9779;51.756;7.450;2023-06-04T04:01:20;1.43;;;1.33;;
19291;SDS011;9779;51.756;7.450;2023-06-04T04:03:46;2.03;;;1.53;;
19291;SDS011;9779;51.756;7.450;2023-06-04T04:06:14;3.23;;;1.63;;
19291;SDS011;9779;51.756;7.450;2023-06-04T04:08:41;3.33;;;1.67;;
19291;SDS011;9779;51.756;7.450;2023-06-04T04:11:10;4.07;;;1.60;;
19291;SDS011;9779;51.756;7.450;2023-06-04T04:13:37;4.17;;;1.43;;
19291;SDS011;9779;51.756;7.450;2023-06-04T04:16:02;2.27;;;2.07;;
19291;SDS011;9779;51.756;7.450;2023-06-04T04:18:28;2.10;;;1.90;;
19291;SDS011;9779;51.756;7.450;2023-06-04T04:21:01;1.53;;;1.43;;
19291;SDS011;9779;51.756;7.450;2023-06-04T04:23:28;4.10;;;1.73;;
19291;SDS011;9779;51.756;7.450;2023-06-04T04:25:54;3.67;;;1.83;;
19291;SDS011;9779;51.756;7.450;2023-06-04T04:28:21;2.50;;;1.60;;
19291;SDS011;9779;51.756;7.450;2023-06-04T04:30:47;2.27;;;2.07;;
19291;SDS011;9779;51.756;7.450;2023-06-04T04:33:13;3.63;;;1.67;;
19291;SDS011;9779;51.756;7.450;2023-06-04T04:35:42;6.93;;;2.00;;
19291;SDS011;9779;51.756;7.450;2023-06-04T04:38:09;1.67;;;1.57;;
19291;SDS011;9779;51.756;7.450;2023-06-04T04:40:35;2.00;;;1.90;;
19291;SDS011;9779;51.756;7.450;2023-06-04T04:43:01;2.40;;;1.97;;
19291;SDS011;9779;51.756;7.450;2023-06-04T04:45:27;2.20;;;1.87;;
19291;SDS011;9779;51.756;7.450;2023-06-04T04:47:53;1.70;;;1.60;;
19291;SDS011;9779;51.756;7.450;2023-06-04T04:50:18;1.90;;;1.57;;
19291;SDS011;9779;51.756;7.450;2023-06-04T04:52:44;3.67;;;1.90;;
19291;SDS011;9779;51.756;7.450;2023-06-04T04:55:09;2.30;;;1.80;;
19291;SDS011;9779;51.756;7.450;2023-06-04T04:57:37;3.80;;;1.63;;
19291;SDS011;9779;51.756;7.450;2023-06-04T05:00:03;1.67;;;1.57;;
19291;SDS011;9779;51.756;7.450;2023-06-04T05:02:31;2.40;;;1.60;;
19291;SDS011;9779;51.756;7.450;2023-06-04T05:04:56;2.10;;;1.70;;
19291;SDS011;9779;51.756;7.450;2023-06-04T05:07:22;2.27;;;2.07;;
19291;SDS011;9779;51.756;7.450;2023-06-04T05:09:48;4.23;;;1.90;;
19291;SDS011;9779;51.756;7.450;2023-06-04T05:12:14;2.03;;;1.77;;
19291;SDS011;9779;51.756;7.450;2023-06-04T05:14:39;2.10;;;1.87;;
19291;SDS011;9779;51.756;7.450;2023-06-04T05:17:06;4.47;;;1.90;;
19291;SDS011;9779;51.756;7.450;2023-06-04T05:19:34;1.77;;;1.57;;
19291;SDS011;9779;51.756;7.450;2023-06-04T05:22:00;3.80;;;2.00;;
19291;SDS011;9779;51.756;7.450;2023-06-04T05:24:28;2.00;;;1.80;;
19291;SDS011;9779;51.756;7.450;2023-06-04T05:26:54;2.00;;;1.73;;
19291;SDS011;9779;51.756;7.450;2023-06-04T05:29:21;1.50;;;1.40;;
19291;SDS011;9779;51.756;7.450;2023-06-04T05:31:47;2.43;;;1.80;;
19291;SDS011;9779;51.756;7.450;2023-06-04T05:34:13;2.33;;;1.70;;
19291;SDS011;9779;51.756;7.450;2023-06-04T05:36:41;4.43;;;1.53;;
19291;SDS011;9779;51.756;7.450;2023-06-04T05:39:07;1.90;;;1.50;;
19291;SDS011;9779;51.756;7.450;2023-06-04T05:41:34;2.20;;;1.80;;
19291;SDS011;9779;51.756;7.450;2023-06-04T05:44:00;4.17;;;1.90;;
19291;SDS011;9779;51.756;7.450;2023-06-04T05:46:26;2.17;;;1.97;;
19291;SDS011;9779;51.756;7.450;2023-06-04T05:48:52;1.87;;;1.73;;
19291;SDS011;9779;51.756;7.450;2023-06-04T05:51:18;2.03;;;1.87;;
19291;SDS011;9779;51.756;7.450;2023-06-04T05:53:44;4.87;;;1.90;;
19291;SDS011;9779;51.756;7.450;2023-06-04T05:56:10;7.97;;;1.80;;
19291;SDS011;9779;51.756;7.450;2023-06-04T05:58:35;1.60;;;1.43;;
19291;SDS011;9779;51.756;7.450;2023-06-04T06:01:01;2.10;;;2.00;;
19291;SDS011;9779;51.756;7.450;2023-06-04T06:03:28;2.83;;;1.90;;
19291;SDS011;9779;51.756;7.450;2023-06-04T06:05:53;1.60;;;1.50;;
19291;SDS011;9779;51.756;7.450;2023-06-04T06:08:19;1.77;;;1.67;;
19291;SDS011;9779;51.756;7.450;2023-06-04T06:10:46;3.70;;;1.57;;
19291;SDS011;9779;51.756;7.450;2023-06-04T06:13:11;2.23;;;2.03;;
19291;SDS011;9779;51.756;7.450;2023-06-04T06:15:37;3.77;;;1.70;;
19291;SDS011;9779;51.756;7.450;2023-06-04T06:18:03;3.00;;;1.73;;
19291;SDS011;9779;51.756;7.450;2023-06-04T06:20:29;1.67;;;1.57;;
19291;SDS011;9779;51.756;7.450;2023-06-04T06:22:54;2.03;;;1.70;;
19291;SDS011;9779;51.756;7.450;2023-06-04T06:25:20;5.43;;;1.53;;
19291;SDS011;9779;51.756;7.450;2023-06-04T06:27:45;1.83;;;1.63;;
19291;SDS011;9779;51.756;7.450;2023-06-04T06:30:13;3.10;;;1.70;;
19291;SDS011;9779;51.756;7.450;2023-06-04T06:32:39;1.87;;;1.73;;
19291;SDS011;9779;51.756;7.450;2023-06-04T06:35:04;4.97;;;1.60;;
19291;SDS011;9779;51.756;7.450;2023-06-04T06:37:30;1.97;;;1.47;;
19291;SDS011;9779;51.756;7.450;2023-06-04T06:39:56;1.60;;;1.40;;
19291;SDS011;9779;51.756;7.450;2023-06-04T06:42:22;4.50;;;1.70;;
19291;SDS011;9779;51.756;7.450;2023-06-04T06:44:48;3.77;;;2.10;;
19291;SDS011;9779;51.756;7.450;2023-06-04T06:47:13;2.83;;;1.40;;
19291;SDS011;9779;51.756;7.450;2023-06-04T06:49:39;1.40;;;1.30;;
19291;SDS011;9779;51.756;7.450;2023-06-04T06:52:05;1.50;;;1.40;;
19291;SDS011;9779;51.756;7.450;2023-06-04T06:54:31;1.53;;;1.43;;
19291;SDS011;9779;51.756;7.450;2023-06-04T06:56:57;1.17;;;1.07;;
19291;SDS011;9779;51.756;7.450;2023-06-04T06:59:22;1.53;;;1.40;;
19291;SDS011;9779;51.756;7.450;2023-06-04T07:01:48;3.90;;;1.47;;
19291;SDS011;9779;51.756;7.450;2023-06-04T07:04:13;3.70;;;1.40;;
19291;SDS011;9779;51.756;7.450;2023-06-04T07:06:39;1.33;;;1.20;;
19291;SDS011;9779;51.756;7.450;2023-06-04T07:09:05;3.03;;;1.20;;
19291;SDS011;9779;51.756;7.450;2023-06-04T07:11:31;1.33;;;1.20;;
19291;SDS011;9779;51.756;7.450;2023-06-04T07:13:56;1.50;;;1.10;;
19291;SDS011;9779;51.756;7.450;2023-06-04T07:16:22;5.30;;;1.13;;
19291;SDS011;9779;51.756;7.450;2023-06-04T07:18:48;3.93;;;1.00;;
19291;SDS011;9779;51.756;7.450;2023-06-04T07:21:16;1.10;;;1.00;;
19291;SDS011;9779;51.756;7.450;2023-06-04T07:23:44;1.77;;;1.17;;
19291;SDS011;9779;51.756;7.450;2023-06-04T07:26:12;1.60;;;1.50;;
19291;SDS011;9779;51.756;7.450;2023-06-04T07:28:37;2.40;;;1.20;;
19291;SDS011;9779;51.756;7.450;2023-06-04T07:31:03;2.27;;;1.50;;
19291;SDS011;9779;51.756;7.450;2023-06-04T07:33:28;2.23;;;1.53;;
19291;SDS011;9779;51.756;7.450;2023-06-04T07:35:54;1.53;;;1.10;;
19291;SDS011;9779;51.756;7.450;2023-06-04T07:38:20;1.23;;;1.10;;
19291;SDS011;9779;51.756;7.450;2023-06-04T07:40:45;1.60;;;1.37;;
19291;SDS011;9779;51.756;7.450;2023-06-04T07:43:12;4.10;;;1.20;;
19291;SDS011;9779;51.756;7.450;2023-06-04T07:45:38;3.07;;;1.60;;
19291;SDS011;9779;51.756;7.450;2023-06-04T07:48:03;1.77;;;1.50;;
19291;SDS011;9779;51.756;7.450;2023-06-04T07:50:29;1.40;;;1.30;;
19291;SDS011;9779;51.756;7.450;2023-06-04T07:52:55;3.27;;;1.83;;
19291;SDS011;9779;51.756;7.450;2023-06-04T07:55:21;1.20;;;1.10;;
19291;SDS011;9779;51.756;7.450;2023-06-04T07:57:46;2.00;;;1.30;;
19291;SDS011;9779;51.756;7.450;2023-06-04T08:00:12;1.10;;;1.00;;
19291;SDS011;9779;51.756;7.450;2023-06-04T08:02:39;3.40;;;1.40;;
19291;SDS011;9779;51.756;7.450;2023-06-04T08:05:05;2.23;;;1.30;;
19291;SDS011;9779;51.756;7.450;2023-06-04T08:07:31;3.53;;;1.10;;
19291;SDS011;9779;51.756;7.450;2023-06-04T08:09:56;2.10;;;1.40;;
19291;SDS011;9779;51.756;7.450;2023-06-04T08:12:22;3.80;;;1.20;;
19291;SDS011;9779;51.756;7.450;2023-06-04T08:14:48;1.50;;;1.40;;
19291;SDS011;9779;51.756;7.450;2023-06-04T08:17:15;2.03;;;1.70;;
19291;SDS011;9779;51.756;7.450;2023-06-04T08:19:41;1.87;;;1.17;;
19291;SDS011;9779;51.756;7.450;2023-06-04T08:22:06;3.40;;;1.60;;
19291;SDS011;9779;51.756;7.450;2023-06-04T08:24:34;3.17;;;1.40;;
19291;SDS011;9779;51.756;7.450;2023-06-04T08:26:59;1.80;;;1.10;;
19291;SDS011;9779;51.756;7.450;2023-06-04T08:29:25;1.80;;;1.40;;
19291;SDS011;9779;51.756;7.450;2023-06-04T08:31:51;8.30;;;1.30;;
19291;SDS011;9779;51.756;7.450;2023-06-04T08:34:16;4.70;;;1.67;;
19291;SDS011;9779;51.756;7.450;2023-06-04T08:36:42;2.83;;;1.53;;
19291;SDS011;9779;51.756;7.450;2023-06-04T08:39:08;1.63;;;1.07;;
19291;SDS011;9779;51.756;7.450;2023-06-04T08:41:38;2.77;;;1.40;;
19291;SDS011;9779;51.756;7.450;2023-06-04T08:44:13;12.37;;;1.77;;
19291;SDS011;9779;51.756;7.450;2023-06-04T08:46:43;1.37;;;1.20;;
19291;SDS011;9779;51.756;7.450;2023-06-04T08:49:11;3.20;;;1.37;;
19291;SDS011;9779;51.756;7.450;2023-06-04T08:51:38;3.20;;;1.10;;
19291;SDS011;9779;51.756;7.450;2023-06-04T08:54:06;3.53;;;1.27;;
19291;SDS011;9779;51.756;7.450;2023-06-04T08:56:33;2.05;;;1.30;;
19291;SDS011;9779;51.756;7.450;2023-06-04T08:59:01;1.93;;;1.37;;
19291;SDS011;9779;51.756;7.450;2023-06-04T09:01:28;2.50;;;1.23;;
19291;SDS011;9779;51.756;7.450;2023-06-04T09:03:59;1.33;;;1.23;;
19291;SDS011;9779;51.756;7.450;2023-06-04T09:06:26;1.23;;;1.13;;
19291;SDS011;9779;51.756;7.450;2023-06-04T09:08:53;1.40;;;1.03;;
19291;SDS011;9779;51.756;7.450;2023-06-04T09:11:26;4.53;;;1.25;;
19291;SDS011;9779;51.756;7.450;2023-06-04T09:13:56;1.30;;;1.20;;
19291;SDS011;9779;51.756;7.450;2023-06-04T09:16:24;1.52;;;1.15;;
19291;SDS011;9779;51.756;7.450;2023-06-04T09:18:50;1.08;;;0.90;;
19291;SDS011;9779;51.756;7.450;2023-06-04T09:21:16;4.40;;;1.50;;
19291;SDS011;9779;51.756;7.450;2023-06-04T09:23:45;0.85;;;0.85;;
19291;SDS011;9779;51.756;7.450;2023-06-04T09:26:11;1.17;;;0.93;;
19291;SDS011;9779;51.756;7.450;2023-06-04T09:28:43;1.17;;;1.08;;
19291;SDS011;9779;51.756;7.450;2023-06-04T09:31:14;3.17;;;0.82;;
19291;SDS011;9779;51.756;7.450;2023-06-04T09:33:47;5.40;;;1.33;;
19291;SDS011;9779;51.756;7.450;2023-06-04T09:36:14;1.58;;;1.17;;
19291;SDS011;9779;51.756;7.450;2023-06-04T09:38:40;8.20;;;0.98;;
19291;SDS011;9779;51.756;7.450;2023-06-04T09:41:16;3.67;;;0.90;;
19291;SDS011;9779;51.756;7.450;2023-06-04T09:43:46;3.45;;;0.95;;
19291;SDS011;9779;51.756;7.450;2023-06-04T09:46:15;1.52;;;0.80;;
19291;SDS011;9779;51.756;7.450;2023-06-04T09:48:43;0.73;;;0.70;;
19291;SDS011;9779;51.756;7.450;2023-06-04T09:51:12;1.58;;;0.73;;
19291;SDS011;9779;51.756;7.450;2023-06-04T09:53:52;1.08;;;0.77;;
19291;SDS011;9779;51.756;7.450;2023-06-04T09:56:24;0.90;;;0.70;;
19291;SDS011;9779;51.756;7.450;2023-06-04T09:58:53;0.98;;;0.88;;
19291;SDS011;9779;51.756;7.450;2023-06-04T10:01:33;4.72;;;1.00;;
19291;SDS011;9779;51.756;7.450;2023-06-04T10:04:03;3.53;;;0.98;;
19291;SDS011;9779;51.756;7.450;2023-06-04T10:06:34;1.50;;;1.10;;
19291;SDS011;9779;51.756;7.450;2023-06-04T10:09:04;1.70;;;0.80;;
19291;SDS011;9779;51.756;7.450;2023-06-04T10:11:43;3.95;;;0.77;;
19291;SDS011;9779;51.756;7.450;2023-06-04T10:14:19;1.55;;;0.90;;
19291;SDS011;9779;51.756;7.450;2023-06-04T10:16:48;2.95;;;1.10;;
19291;SDS011;9779;51.756;7.450;2023-06-04T10:19:16;5.07;;;1.27;;
19291;SDS011;9779;51.756;7.450;2023-06-04T10:21:43;1.27;;;0.80;;
19291;SDS011;9779;51.756;7.450;2023-06-04T10:24:09;1.17;;;0.63;;
19291;SDS011;9779;51.756;7.450;2023-06-04T10:26:35;4.30;;;0.70;;
19291;SDS011;9779;51.756;7.450;2023-06-04T10:29:03;2.28;;;0.63;;
19291;SDS011;9779;51.756;7.450;2023-06-04T10:31:30;1.45;;;0.73;;
19291;SDS011;9779;51.756;7.450;2023-06-04T10:33:57;1.00;;;0.80;;
19291;SDS011;9779;51.756;7.450;2023-06-04T10:36:23;1.55;;;0.85;;
19291;SDS011;9779;51.756;7.450;2023-06-04T10:38:51;2.05;;;0.90;;
19291;SDS011;9779;51.756;7.450;2023-06-04T10:41:18;4.13;;;0.63;;
19291;SDS011;9779;51.756;7.450;2023-06-04T10:43:48;2.33;;;0.70;;
19291;SDS011;9779;51.756;7.450;2023-06-04T10:46:15;0.90;;;0.80;;
19291;SDS011;9779;51.756;7.450;2023-06-04T10:48:46;1.60;;;1.00;;
19291;SDS011;9779;51.756;7.450;2023-06-04T10:51:12;1.30;;;0.98;;
19291;SDS011;9779;51.756;7.450;2023-06-04T10:53:38;1.40;;;0.80;;
19291;SDS011;9779;51.756;7.450;2023-06-04T10:56:04;2.42;;;1.02;;
19291;SDS011;9779;51.756;7.450;2023-06-04T10:58:33;1.15;;;0.68;;
19291;SDS011;9779;51.756;7.450;2023-06-04T11:01:00;1.48;;;1.02;;
19291;SDS011;9779;51.756;7.450;2023-06-04T11:03:34;1.70;;;1.38;;
19291;SDS011;9779;51.756;7.450;2023-06-04T11:06:14;2.95;;;0.82;;
19291;SDS011;9779;51.756;7.450;2023-06-04T11:09:01;2.10;;;0.95;;
19291;SDS011;9779;51.756;7.450;2023-06-04T11:11:33;3.65;;;0.93;;
19291;SDS011;9779;51.756;7.450;2023-06-04T11:14:11;1.48;;;1.05;;
19291;SDS011;9779;51.756;7.450;2023-06-04T11:16:37;1.35;;;1.02;;
19291;SDS011;9779;51.756;7.450;2023-06-04T11:19:03;1.60;;;1.10;;
19291;SDS011;9779;51.756;7.450;2023-06-04T11:21:29;2.97;;;1.05;;
19291;SDS011;9779;51.756;7.450;2023-06-04T11:23:58;1.25;;;0.88;;
19291;SDS011;9779;51.756;7.450;2023-06-04T11:26:31;1.10;;;0.95;;
19291;SDS011;9779;51.756;7.450;2023-06-04T11:28:58;1.90;;;1.25;;
19291;SDS011;9779;51.756;7.450;2023-06-04T11:31:23;1.02;;;0.93;;
19291;SDS011;9779;51.756;7.450;2023-06-04T11:33:49;4.30;;;0.80;;
19291;SDS011;9779;51.756;7.450;2023-06-04T11:36:27;1.80;;;1.70;;
19291;SDS011;9779;51.756;7.450;2023-06-04T11:38:54;1.77;;;1.30;;
19291;SDS011;9779;51.756;7.450;2023-06-04T11:41:24;1.75;;;1.63;;
19291;SDS011;9779;51.756;7.450;2023-06-04T11:44:03;1.58;;;0.80;;
19291;SDS011;9779;51.756;7.450;2023-06-04T11:46:31;1.45;;;0.70;;
19291;SDS011;9779;51.756;7.450;2023-06-04T11:48:58;2.25;;;0.93;;
19291;SDS011;9779;51.756;7.450;2023-06-04T11:51:24;1.00;;;0.70;;
19291;SDS011;9779;51.756;7.450;2023-06-04T11:53:49;1.48;;;0.90;;
19291;SDS011;9779;51.756;7.450;2023-06-04T11:56:15;1.58;;;0.60;;
19291;SDS011;9779;51.756;7.450;2023-06-04T11:58:42;1.98;;;1.35;;
19291;SDS011;9779;51.756;7.450;2023-06-04T12:01:08;1.33;;;0.95;;
19291;SDS011;9779;51.756;7.450;2023-06-04T12:03:38;2.70;;;0.70;;
19291;SDS011;9779;51.756;7.450;2023-06-04T12:06:09;0.85;;;0.77;;
19291;SDS011;9779;51.756;7.450;2023-06-04T12:08:43;4.30;;;1.00;;
19291;SDS011;9779;51.756;7.450;2023-06-04T12:11:29;1.25;;;0.75;;
19291;SDS011;9779;51.756;7.450;2023-06-04T12:13:57;1.00;;;0.73;;
19291;SDS011;9779;51.756;7.450;2023-06-04T12:16:29;1.45;;;1.35;;
19291;SDS011;9779;51.756;7.450;2023-06-04T12:19:05;1.63;;;0.88;;
19291;SDS011;9779;51.756;7.450;2023-06-04T12:21:34;4.38;;;0.70;;
19291;SDS011;9779;51.756;7.450;2023-06-04T12:26:36;1.60;;;0.88;;
19291;SDS011;9779;51.756;7.450;2023-06-04T12:29:12;4.35;;;0.73;;
19291;SDS011;9779;51.756;7.450;2023-06-04T12:31:39;0.75;;;0.70;;
19291;SDS011;9779;51.756;7.450;2023-06-04T12:34:06;3.28;;;1.13;;
19291;SDS011;9779;51.756;7.450;2023-06-04T12:36:32;1.70;;;0.90;;
19291;SDS011;9779;51.756;7.450;2023-06-04T12:38:59;0.93;;;0.77;;
19291;SDS011;9779;51.756;7.450;2023-06-04T12:41:26;1.42;;;1.27;;
19291;SDS011;9779;51.756;7.450;2023-06-04T12:43:52;5.13;;;0.70;;
19291;SDS011;9779;51.756;7.450;2023-06-04T12:46:18;2.53;;;0.70;;
19291;SDS011;9779;51.756;7.450;2023-06-04T12:48:43;2.70;;;0.50;;
19291;SDS011;9779;51.756;7.450;2023-06-04T12:51:09;0.85;;;0.40;;
19291;SDS011;9779;51.756;7.450;2023-06-04T12:53:38;2.35;;;0.60;;
19291;SDS011;9779;51.756;7.450;2023-06-04T12:56:04;1.58;;;0.65;;
19291;SDS011;9779;51.756;7.450;2023-06-04T12:58:30;0.65;;;0.50;;
19291;SDS011;9779;51.756;7.450;2023-06-04T13:00:56;1.70;;;0.70;;
19291;SDS011;9779;51.756;7.450;2023-06-04T13:03:21;5.97;;;0.82;;
19291;SDS011;9779;51.756;7.450;2023-06-04T13:05:47;0.80;;;0.60;;
19291;SDS011;9779;51.756;7.450;2023-06-04T13:08:13;3.05;;;0.80;;
19291;SDS011;9779;51.756;7.450;2023-06-04T13:10:40;0.88;;;0.75;;
19291;SDS011;9779;51.756;7.450;2023-06-04T13:13:05;8.70;;;1.23;;
19291;SDS011;9779;51.756;7.450;2023-06-04T13:15:31;0.60;;;0.60;;
19291;SDS011;9779;51.756;7.450;2023-06-04T13:17:56;0.88;;;0.50;;
19291;SDS011;9779;51.756;7.450;2023-06-04T13:20:22;0.90;;;0.68;;
19291;SDS011;9779;51.756;7.450;2023-06-04T13:22:47;1.55;;;0.52;;
19291;SDS011;9779;51.756;7.450;2023-06-04T13:25:13;3.05;;;0.70;;
19291;SDS011;9779;51.756;7.450;2023-06-04T13:27:38;1.40;;;0.63;;
19291;SDS011;9779;51.756;7.450;2023-06-04T13:30:05;2.22;;;0.82;;
19291;SDS011;9779;51.756;7.450;2023-06-04T13:32:31;0.63;;;0.57;;
19291;SDS011;9779;51.756;7.450;2023-06-04T13:34:56;2.08;;;0.70;;
19291;SDS011;9779;51.756;7.450;2023-06-04T13:37:22;0.50;;;0.50;;
19291;SDS011;9779;51.756;7.450;2023-06-04T13:39:48;12.10;;;1.05;;
19291;SDS011;9779;51.756;7.450;2023-06-04T13:42:13;1.25;;;1.00;;
19291;SDS011;9779;51.756;7.450;2023-06-04T13:44:39;0.95;;;0.50;;
19291;SDS011;9779;51.756;7.450;2023-06-04T13:47:04;2.55;;;0.60;;
19291;SDS011;9779;51.756;7.450;2023-06-04T13:49:33;1.17;;;0.63;;
19291;SDS011;9779;51.756;7.450;2023-06-04T13:51:59;0.95;;;0.68;;
19291;SDS011;9779;51.756;7.450;2023-06-04T13:54:25;2.28;;;0.80;;
19291;SDS011;9779;51.756;7.450;2023-06-04T13:56:51;4.75;;;0.80;;
19291;SDS011;9779;51.756;7.450;2023-06-04T13:59:16;3.22;;;0.70;;
19291;SDS011;9779;51.756;7.450;2023-06-04T14:01:42;2.15;;;0.65;;
19291;SDS011;9779;51.756;7.450;2023-06-04T14:04:07;0.70;;;0.60;;
19291;SDS011;9779;51.756;7.450;2023-06-04T14:06:34;10.73;;;0.85;;
19291;SDS011;9779;51.756;7.450;2023-06-04T14:09:00;3.55;;;1.38;;
19291;SDS011;9779;51.756;7.450;2023-06-04T14:11:26;2.67;;;2.47;;
19291;SDS011;9779;51.756;7.450;2023-06-04T14:13:52;6.50;;;1.95;;
19291;SDS011;9779;51.756;7.450;2023-06-04T14:16:17;7.70;;;1.27;;
19291;SDS011;9779;51.756;7.450;2023-06-04T14:18:43;5.15;;;0.70;;
19291;SDS011;9779;51.756;7.450;2023-06-04T14:21:08;3.65;;;0.60;;
19291;SDS011;9779;51.756;7.450;2023-06-04T14:23:34;1.20;;;1.10;;
19291;SDS011;9779;51.756;7.450;2023-06-04T14:25:59;0.90;;;0.70;;
19291;SDS011;9779;51.756;7.450;2023-06-04T14:28:25;1.30;;;0.82;;
19291;SDS011;9779;51.756;7.450;2023-06-04T14:30:50;1.00;;;0.82;;
19291;SDS011;9779;51.756;7.450;2023-06-04T14:33:16;1.63;;;0.57;;
19291;SDS011;9779;51.756;7.450;2023-06-04T14:35:42;2.60;;;0.65;;
19291;SDS011;9779;51.756;7.450;2023-06-04T14:38:12;0.60;;;0.50;;
19291;SDS011;9779;51.756;7.450;2023-06-04T14:40:39;1.30;;;0.77;;
19291;SDS011;9779;51.756;7.450;2023-06-04T14:43:06;0.98;;;0.60;;
19291;SDS011;9779;51.756;7.450;2023-06-04T14:45:32;1.48;;;0.80;;
19291;SDS011;9779;51.756;7.450;2023-06-04T14:47:58;1.17;;;0.63;;
19291;SDS011;9779;51.756;7.450;2023-06-04T14:50:23;0.73;;;0.57;;
19291;SDS011;9779;51.756;7.450;2023-06-04T14:52:49;0.60;;;0.47;;
19291;SDS011;9779;51.756;7.450;2023-06-04T14:55:15;1.08;;;0.75;;
19291;SDS011;9779;51.756;7.450;2023-06-04T14:57:40;3.33;;;0.60;;
19291;SDS011;9779;51.756;7.450;2023-06-04T15:00:06;1.30;;;0.68;;
19291;SDS011;9779;51.756;7.450;2023-06-04T15:02:32;0.70;;;0.60;;
19291;SDS011;9779;51.756;7.450;2023-06-04T15:04:57;1.05;;;0.70;;